Spabunker 21 — EAFF — position and weather

sailwx.info

Track history (hours):
 
Tides and Currents Weather Stations Pressure Air Temp Water Temp Dewpoint Dewpoint Depression Visibility Wind Speed Wind Dir Waves Ship Positions

Spabunker 21

Last reported at 2016-Apr-29 17:33 UTC. Time now 2016-Apr-29 17:46 UTC.
Position N 28°08' W 015°25'.

Length 82 m; draft 4.1 m.

Type: Ship. MMSI: 224976000.

Date/timePositionNaut miles runAvg speedWind from/ knotsBaromVisibWave heightAir tempDewpointWater temp
2016-Apr-29 17:33N 28°08' W 015°25'0 0.0
2016-Apr-29 16:33N 28°08' W 015°25'0 0.0
2016-Apr-29 15:33N 28°08' W 015°25'0 0.0
2016-Apr-29 14:33N 28°08' W 015°25'2 2.4
2016-Apr-29 13:33N 28°06' W 015°24'0 0.1
2016-Apr-29 12:33N 28°06' W 015°24'0 0.0
2016-Apr-29 11:34N 28°06' W 015°24'0 0.0
2016-Apr-29 10:34N 28°06' W 015°24'0 0.0
2016-Apr-29 09:34N 28°06' W 015°24'0 0.0
2016-Apr-29 08:34N 28°06' W 015°24'0 0.0
2016-Apr-29 07:34N 28°06' W 015°24'0 0.0
2016-Apr-29 06:33N 28°06' W 015°24'0 0.0
2016-Apr-29 05:34N 28°06' W 015°24'0 0.0
2016-Apr-29 04:33N 28°06' W 015°24'0 0.0
2016-Apr-29 03:33N 28°06' W 015°24'0 0.0
2016-Apr-29 02:33N 28°06' W 015°24'3 2.6
2016-Apr-29 01:33N 28°09' W 015°24'0 0.0
2016-Apr-29 00:33N 28°09' W 015°24'0 0.0
2016-Apr-28 23:33N 28°09' W 015°24'0 0.0
2016-Apr-28 22:33N 28°09' W 015°24'0 0.0
2016-Apr-28 21:34N 28°09' W 015°24'0 0.0
2016-Apr-28 20:34N 28°09' W 015°24'0 0.0
2016-Apr-28 19:34N 28°09' W 015°24'2 1.5
2016-Apr-28 18:34N 28°07' W 015°24'1 1.4
2016-Apr-28 17:34N 28°08' W 015°25'0 0.0
2016-Apr-28 16:34N 28°08' W 015°25'0 0.0
2016-Apr-28 15:34N 28°08' W 015°25'0 0.0
2016-Apr-28 14:33N 28°08' W 015°25'0 0.0
2016-Apr-27 14:08N 28°08' W 015°25'0 0.0
2016-Apr-27 13:34N 28°08' W 015°25'0 0.0
2016-Apr-27 12:34N 28°08' W 015°25'0 0.0
2016-Apr-27 11:34N 28°08' W 015°25'0 0.0
2016-Apr-27 10:33N 28°08' W 015°25'0 0.0
2016-Apr-27 09:33N 28°08' W 015°25'0 0.0
2016-Apr-27 08:33N 28°08' W 015°25'0 0.0
2016-Apr-27 07:33N 28°08' W 015°25'0 0.0
2016-Apr-27 06:33N 28°08' W 015°25'0 0.0
2016-Apr-27 05:33N 28°08' W 015°25'0 0.0
2016-Apr-27 04:33N 28°08' W 015°25'0 0.0
2016-Apr-27 03:34N 28°08' W 015°25'0 0.0
2016-Apr-27 02:34N 28°08' W 015°25'0 0.0
2016-Apr-27 01:34N 28°08' W 015°25'0 0.0
2016-Apr-27 00:34N 28°08' W 015°25'0 0.0
2016-Apr-26 23:34N 28°08' W 015°25'0 0.0
2016-Apr-26 22:33N 28°08' W 015°25'1 0.9
2016-Apr-26 21:34N 28°08' W 015°25'1 1.0
2016-Apr-26 20:33N 28°08' W 015°24'0 0.0
2016-Apr-26 19:33N 28°08' W 015°24'0 0.0
2016-Apr-26 18:33N 28°08' W 015°24'0 0.0
2016-Apr-26 17:33N 28°08' W 015°24'0 0.0
2016-Apr-26 16:33N 28°08' W 015°24'0 0.0
2016-Apr-26 15:33N 28°08' W 015°24'0 0.0
2016-Apr-26 14:33N 28°08' W 015°24'0 0.0
2016-Apr-26 13:33N 28°08' W 015°24'0 0.0
2016-Apr-26 12:34N 28°08' W 015°24'0 0.1
2016-Apr-26 11:34N 28°08' W 015°24'1 0.6
2016-Apr-26 10:33N 28°07' W 015°24'1 1.4
2016-Apr-26 09:34N 28°08' W 015°25'0 0.0
2016-Apr-26 08:33N 28°08' W 015°25'0 0.0
2016-Apr-26 07:33N 28°08' W 015°25'0 0.0
2016-Apr-26 06:33N 28°08' W 015°25'1 1.1
2016-Apr-26 05:33N 28°07' W 015°25'2 1.7
2016-Apr-26 04:33N 28°08' W 015°23'0 0.0
2016-Apr-26 03:33N 28°08' W 015°24'0 0.0
2016-Apr-26 02:33N 28°08' W 015°23'0 0.0
2016-Apr-26 01:33N 28°08' W 015°23'0 0.0
2016-Apr-26 00:33N 28°08' W 015°24'0 0.0
2016-Apr-25 23:34N 28°08' W 015°24'0 0.0
2016-Apr-25 22:33N 28°08' W 015°24'0 0.0
2016-Apr-25 21:34N 28°08' W 015°24'0 0.0
2016-Apr-25 20:34N 28°08' W 015°24'0 0.0
2016-Apr-25 19:33N 28°08' W 015°24'2 2.3
2016-Apr-25 18:34N 28°06' W 015°24'0 0.0
2016-Apr-25 17:34N 28°06' W 015°24'0 0.0
2016-Apr-25 16:33N 28°06' W 015°24'0 0.0
2016-Apr-25 15:33N 28°06' W 015°24'0 0.0
2016-Apr-25 14:33N 28°06' W 015°24'0 0.0
2016-Apr-25 13:33N 28°06' W 015°24'0 0.0
2016-Apr-25 12:33N 28°06' W 015°24'0 0.1
2016-Apr-25 11:33N 28°06' W 015°24'2 2.4
2016-Apr-25 10:33N 28°08' W 015°25'0 0.0
2016-Apr-25 09:33N 28°08' W 015°25'0 0.0
2016-Apr-25 08:34N 28°08' W 015°25'0 0.0
2016-Apr-25 07:33N 28°08' W 015°25'0 0.0
2016-Apr-25 06:33N 28°08' W 015°25'0 0.0
2016-Apr-25 05:33N 28°08' W 015°25'0 0.0
2016-Apr-25 04:33N 28°08' W 015°25'0 0.0
2016-Apr-25 03:33N 28°08' W 015°25'1 1.3
2016-Apr-25 02:33N 28°07' W 015°25'1 0.6
2016-Apr-25 01:33N 28°07' W 015°24'0 0.0
2016-Apr-25 00:33N 28°07' W 015°24'0 0.0
2016-Apr-24 23:33N 28°07' W 015°24'0 0.0
2016-Apr-24 22:33N 28°07' W 015°24'0 0.0
2016-Apr-24 21:33N 28°07' W 015°24'0 0.1
2016-Apr-24 20:33N 28°07' W 015°24'2 1.8
2016-Apr-24 19:33N 28°08' W 015°25'0 0.0
2016-Apr-24 18:33N 28°08' W 015°25'0 0.0
2016-Apr-24 17:33N 28°08' W 015°25'0 0.0
2016-Apr-24 16:33N 28°08' W 015°25'0 0.0
2016-Apr-24 15:34N 28°08' W 015°25'0 0.0
2016-Apr-24 14:34N 28°08' W 015°25'0 0.0
2016-Apr-24 13:34N 28°08' W 015°25'0 0.0
2016-Apr-24 12:33N 28°08' W 015°25'0 0.0
2016-Apr-24 11:33N 28°08' W 015°25'1 1.2
2016-Apr-24 10:33N 28°07' W 015°25'0 0.0
2016-Apr-24 09:33N 28°07' W 015°25'0 0.1
2016-Apr-24 08:33N 28°07' W 015°25'0 0.3
2016-Apr-24 07:33N 28°07' W 015°25'1 1.1
2016-Apr-24 06:33N 28°08' W 015°25'0 0.0
2016-Apr-24 05:33N 28°08' W 015°25'0 0.0
2016-Apr-24 04:33N 28°08' W 015°25'0 0.0
2016-Apr-24 03:33N 28°08' W 015°25'0 0.0
2016-Apr-24 02:34N 28°08' W 015°25'0 0.0
2016-Apr-24 01:33N 28°08' W 015°25'0 0.0
2016-Apr-24 00:34N 28°08' W 015°25'0 0.0
2016-Apr-23 23:34N 28°08' W 015°25'0 0.0
2016-Apr-23 22:33N 28°08' W 015°25'0 0.0
2016-Apr-23 21:33N 28°08' W 015°25'0 0.0
2016-Apr-23 20:33N 28°08' W 015°25'0 0.0
2016-Apr-23 19:33N 28°08' W 015°25'0 0.0
2016-Apr-23 18:33N 28°08' W 015°25'0 0.0
2016-Apr-23 17:33N 28°08' W 015°25'0 0.0
2016-Apr-23 16:33N 28°08' W 015°25'0 0.0
2016-Apr-23 15:33N 28°08' W 015°25'0 0.0
2016-Apr-23 14:33N 28°08' W 015°25'0 0.0
2016-Apr-23 13:33N 28°08' W 015°25'0 0.0
2016-Apr-23 12:33N 28°08' W 015°25'0 0.0
2016-Apr-23 11:33N 28°08' W 015°25'0 0.0
2016-Apr-23 10:33N 28°08' W 015°25'0 0.0
2016-Apr-23 09:33N 28°08' W 015°25'0 0.0
2016-Apr-23 08:33N 28°08' W 015°25'0 0.0
2016-Apr-23 07:33N 28°08' W 015°25'0 0.0
2016-Apr-23 06:33N 28°08' W 015°25'0 0.0
2016-Apr-23 05:33N 28°08' W 015°25'2 2.2
2016-Apr-23 04:33N 28°06' W 015°24'0 0.0
2016-Apr-23 03:33N 28°06' W 015°24'0 0.0
2016-Apr-23 02:33N 28°06' W 015°24'0 0.0
2016-Apr-23 01:33N 28°06' W 015°24'0 0.0
2016-Apr-23 00:33N 28°06' W 015°24'1 1.3
2016-Apr-22 23:33N 28°07' W 015°25'1 1.1
2016-Apr-22 22:33N 28°08' W 015°25'0 0.0
2016-Apr-22 21:33N 28°08' W 015°25'0 0.0
2016-Apr-22 20:33N 28°08' W 015°25'0 0.0
2016-Apr-22 19:33N 28°08' W 015°25'0 0.0
2016-Apr-22 18:33N 28°08' W 015°25'0 0.0
2016-Apr-22 17:33N 28°08' W 015°25'0 0.0
2016-Apr-22 16:33N 28°08' W 015°25'0 0.0
2016-Apr-22 15:33N 28°08' W 015°25'0 0.0
2016-Apr-22 14:33N 28°08' W 015°25'2 1.6
2016-Apr-22 13:33N 28°07' W 015°25'1 1.2
2016-Apr-22 12:33N 28°06' W 015°24'0 0.0
2016-Apr-22 11:34N 28°06' W 015°24'0 0.0
2016-Apr-22 10:34N 28°06' W 015°24'0 0.0
2016-Apr-22 09:33N 28°06' W 015°24'2 1.9
2016-Apr-22 08:33N 28°08' W 015°25'1 1.0
2016-Apr-22 07:34N 28°08' W 015°25'0 0.0
2016-Apr-22 06:34N 28°08' W 015°25'0 0.0
2016-Apr-22 05:34N 28°08' W 015°25'0 0.0
2016-Apr-22 04:33N 28°08' W 015°25'0 0.0
2016-Apr-22 03:33N 28°08' W 015°25'0 0.0
2016-Apr-22 02:33N 28°08' W 015°25'0 0.0
2016-Apr-22 01:33N 28°08' W 015°25'0 0.0
2016-Apr-22 00:33N 28°08' W 015°25'0 0.0
2016-Apr-21 23:33N 28°08' W 015°25'0 0.0
2016-Apr-21 22:33N 28°08' W 015°25'0 0.0
2016-Apr-21 21:34N 28°08' W 015°25'0 0.0
2016-Apr-21 20:34N 28°08' W 015°25'0 0.0
2016-Apr-21 19:34N 28°08' W 015°25'0 0.0
2016-Apr-21 18:34N 28°08' W 015°25'0 0.0
2016-Apr-21 17:33N 28°08' W 015°25'0 0.0
2016-Apr-21 16:34N 28°08' W 015°25'0 0.0
2016-Apr-21 15:34N 28°08' W 015°25'0 0.0
2016-Apr-21 14:33N 28°08' W 015°25'0 0.0
2016-Apr-21 13:33N 28°08' W 015°25'0 0.0
2016-Apr-21 12:33N 28°08' W 015°25'0 0.0
2016-Apr-21 11:33N 28°08' W 015°25'0 0.0
2016-Apr-21 10:33N 28°08' W 015°25'0 0.0
2016-Apr-21 09:33N 28°08' W 015°25'0 0.0
2016-Apr-21 08:33N 28°08' W 015°25'0 0.0
2016-Apr-21 07:34N 28°08' W 015°25'0 0.0
2016-Apr-21 06:34N 28°08' W 015°25'0 0.0
2016-Apr-21 05:34N 28°08' W 015°25'0 0.0
2016-Apr-21 04:34N 28°08' W 015°25'0 0.0
2016-Apr-21 03:34N 28°08' W 015°25'0 0.0
2016-Apr-21 02:34N 28°08' W 015°25'0 0.0
2016-Apr-21 01:34N 28°08' W 015°25'0 0.0
2016-Apr-21 00:33N 28°08' W 015°25'0 0.0
2016-Apr-20 22:33N 28°08' W 015°25'0 0.0
2016-Apr-20 21:33N 28°08' W 015°25'0 0.0
2016-Apr-20 20:33N 28°08' W 015°25'0 0.0
2016-Apr-20 19:33N 28°08' W 015°25'0 0.0
2016-Apr-20 18:33N 28°08' W 015°25'0 0.0
2016-Apr-20 17:34N 28°08' W 015°25'0 0.0
2016-Apr-20 16:34N 28°08' W 015°25'0 0.0
2016-Apr-20 15:34N 28°08' W 015°25'0 0.0
2016-Apr-20 14:33N 28°08' W 015°25'0 0.0
2016-Apr-20 13:34N 28°08' W 015°25'0 0.0
2016-Apr-20 12:34N 28°08' W 015°25'0 0.0
2016-Apr-20 11:33N 28°08' W 015°25'0 0.0
2016-Apr-20 10:33N 28°08' W 015°25'0 0.0
2016-Apr-20 09:33N 28°08' W 015°25'0 0.0
2016-Apr-20 08:33N 28°08' W 015°25'0 0.0
2016-Apr-20 07:33N 28°08' W 015°25'0 0.0
2016-Apr-20 06:33N 28°08' W 015°25'0 0.0
2016-Apr-20 05:33N 28°08' W 015°25'0 0.0
2016-Apr-20 04:33N 28°08' W 015°25'0 0.0
2016-Apr-20 03:34N 28°08' W 015°25'0 0.0
2016-Apr-20 02:33N 28°08' W 015°25'0 0.0
2016-Apr-20 01:33N 28°08' W 015°25'0 0.0
2016-Apr-20 00:34N 28°08' W 015°25'0 0.0
2016-Apr-19 23:34N 28°08' W 015°25'0 0.0
2016-Apr-19 22:34N 28°08' W 015°25'0 0.0
2016-Apr-19 21:34N 28°08' W 015°25'0 0.0
2016-Apr-19 20:33N 28°08' W 015°25'0 0.0
2016-Apr-19 19:33N 28°08' W 015°25'0 0.0
2016-Apr-19 18:33N 28°08' W 015°25'0 0.0
2016-Apr-19 17:33N 28°08' W 015°25'  
Track history (hours):
 
Tides and Currents Weather Stations Pressure Air Temp Water Temp Dewpoint Dewpoint Depression Visibility Wind Speed Wind Dir Waves Ship Positions

Spabunker 21

Last reported at 2016-Apr-29 17:33 UTC. Time now 2016-Apr-29 17:46 UTC.
Position N 28°08' W 015°25'.

Length 82 m; draft 4.1 m.

Type: Ship. MMSI: 224976000.

Date/timePositionNaut miles runAvg speedWind from/ knotsBaromVisibWave heightAir tempDewpointWater temp
2016-Apr-29 17:33N 28°08' W 015°25'0 0.0
2016-Apr-29 16:33N 28°08' W 015°25'0 0.0
2016-Apr-29 15:33N 28°08' W 015°25'0 0.0
2016-Apr-29 14:33N 28°08' W 015°25'2 2.4
2016-Apr-29 13:33N 28°06' W 015°24'0 0.1
2016-Apr-29 12:33N 28°06' W 015°24'0 0.0
2016-Apr-29 11:34N 28°06' W 015°24'0 0.0
2016-Apr-29 10:34N 28°06' W 015°24'0 0.0
2016-Apr-29 09:34N 28°06' W 015°24'0 0.0
2016-Apr-29 08:34N 28°06' W 015°24'0 0.0
2016-Apr-29 07:34N 28°06' W 015°24'0 0.0
2016-Apr-29 06:33N 28°06' W 015°24'0 0.0
2016-Apr-29 05:34N 28°06' W 015°24'0 0.0
2016-Apr-29 04:33N 28°06' W 015°24'0 0.0
2016-Apr-29 03:33N 28°06' W 015°24'0 0.0
2016-Apr-29 02:33N 28°06' W 015°24'3 2.6
2016-Apr-29 01:33N 28°09' W 015°24'0 0.0
2016-Apr-29 00:33N 28°09' W 015°24'0 0.0
2016-Apr-28 23:33N 28°09' W 015°24'0 0.0
2016-Apr-28 22:33N 28°09' W 015°24'0 0.0
2016-Apr-28 21:34N 28°09' W 015°24'0 0.0
2016-Apr-28 20:34N 28°09' W 015°24'0 0.0
2016-Apr-28 19:34N 28°09' W 015°24'2 1.5
2016-Apr-28 18:34N 28°07' W 015°24'1 1.4
2016-Apr-28 17:34N 28°08' W 015°25'0 0.0
2016-Apr-28 16:34N 28°08' W 015°25'0 0.0
2016-Apr-28 15:34N 28°08' W 015°25'0 0.0
2016-Apr-28 14:33N 28°08' W 015°25'0 0.0
2016-Apr-27 14:08N 28°08' W 015°25'0 0.0
2016-Apr-27 13:34N 28°08' W 015°25'0 0.0
2016-Apr-27 12:34N 28°08' W 015°25'0 0.0
2016-Apr-27 11:34N 28°08' W 015°25'0 0.0
2016-Apr-27 10:33N 28°08' W 015°25'0 0.0
2016-Apr-27 09:33N 28°08' W 015°25'0 0.0
2016-Apr-27 08:33N 28°08' W 015°25'0 0.0
2016-Apr-27 07:33N 28°08' W 015°25'0 0.0
2016-Apr-27 06:33N 28°08' W 015°25'0 0.0
2016-Apr-27 05:33N 28°08' W 015°25'0 0.0
2016-Apr-27 04:33N 28°08' W 015°25'0 0.0
2016-Apr-27 03:34N 28°08' W 015°25'0 0.0
2016-Apr-27 02:34N 28°08' W 015°25'0 0.0
2016-Apr-27 01:34N 28°08' W 015°25'0 0.0
2016-Apr-27 00:34N 28°08' W 015°25'0 0.0
2016-Apr-26 23:34N 28°08' W 015°25'0 0.0
2016-Apr-26 22:33N 28°08' W 015°25'1 0.9
2016-Apr-26 21:34N 28°08' W 015°25'1 1.0
2016-Apr-26 20:33N 28°08' W 015°24'0 0.0
2016-Apr-26 19:33N 28°08' W 015°24'0 0.0
2016-Apr-26 18:33N 28°08' W 015°24'0 0.0
2016-Apr-26 17:33N 28°08' W 015°24'0 0.0
2016-Apr-26 16:33N 28°08' W 015°24'0 0.0
2016-Apr-26 15:33N 28°08' W 015°24'0 0.0
2016-Apr-26 14:33N 28°08' W 015°24'0 0.0
2016-Apr-26 13:33N 28°08' W 015°24'0 0.0
2016-Apr-26 12:34N 28°08' W 015°24'0 0.1
2016-Apr-26 11:34N 28°08' W 015°24'1 0.6
2016-Apr-26 10:33N 28°07' W 015°24'1 1.4
2016-Apr-26 09:34N 28°08' W 015°25'0 0.0
2016-Apr-26 08:33N 28°08' W 015°25'0 0.0
2016-Apr-26 07:33N 28°08' W 015°25'0 0.0
2016-Apr-26 06:33N 28°08' W 015°25'1 1.1
2016-Apr-26 05:33N 28°07' W 015°25'2 1.7
2016-Apr-26 04:33N 28°08' W 015°23'0 0.0
2016-Apr-26 03:33N 28°08' W 015°24'0 0.0
2016-Apr-26 02:33N 28°08' W 015°23'0 0.0
2016-Apr-26 01:33N 28°08' W 015°23'0 0.0
2016-Apr-26 00:33N 28°08' W 015°24'0 0.0
2016-Apr-25 23:34N 28°08' W 015°24'0 0.0
2016-Apr-25 22:33N 28°08' W 015°24'0 0.0
2016-Apr-25 21:34N 28°08' W 015°24'0 0.0
2016-Apr-25 20:34N 28°08' W 015°24'0 0.0
2016-Apr-25 19:33N 28°08' W 015°24'2 2.3
2016-Apr-25 18:34N 28°06' W 015°24'0 0.0
2016-Apr-25 17:34N 28°06' W 015°24'0 0.0
2016-Apr-25 16:33N 28°06' W 015°24'0 0.0
2016-Apr-25 15:33N 28°06' W 015°24'0 0.0
2016-Apr-25 14:33N 28°06' W 015°24'0 0.0
2016-Apr-25 13:33N 28°06' W 015°24'0 0.0
2016-Apr-25 12:33N 28°06' W 015°24'0 0.1
2016-Apr-25 11:33N 28°06' W 015°24'2 2.4
2016-Apr-25 10:33N 28°08' W 015°25'0 0.0
2016-Apr-25 09:33N 28°08' W 015°25'0 0.0
2016-Apr-25 08:34N 28°08' W 015°25'0 0.0
2016-Apr-25 07:33N 28°08' W 015°25'0 0.0
2016-Apr-25 06:33N 28°08' W 015°25'0 0.0
2016-Apr-25 05:33N 28°08' W 015°25'0 0.0
2016-Apr-25 04:33N 28°08' W 015°25'0 0.0
2016-Apr-25 03:33N 28°08' W 015°25'1 1.3
2016-Apr-25 02:33N 28°07' W 015°25'1 0.6
2016-Apr-25 01:33N 28°07' W 015°24'0 0.0
2016-Apr-25 00:33N 28°07' W 015°24'0 0.0
2016-Apr-24 23:33N 28°07' W 015°24'0 0.0
2016-Apr-24 22:33N 28°07' W 015°24'0 0.0
2016-Apr-24 21:33N 28°07' W 015°24'0 0.1
2016-Apr-24 20:33N 28°07' W 015°24'2 1.8
2016-Apr-24 19:33N 28°08' W 015°25'0 0.0
2016-Apr-24 18:33N 28°08' W 015°25'0 0.0
2016-Apr-24 17:33N 28°08' W 015°25'0 0.0
2016-Apr-24 16:33N 28°08' W 015°25'0 0.0
2016-Apr-24 15:34N 28°08' W 015°25'0 0.0
2016-Apr-24 14:34N 28°08' W 015°25'0 0.0
2016-Apr-24 13:34N 28°08' W 015°25'0 0.0
2016-Apr-24 12:33N 28°08' W 015°25'0 0.0
2016-Apr-24 11:33N 28°08' W 015°25'1 1.2
2016-Apr-24 10:33N 28°07' W 015°25'0 0.0
2016-Apr-24 09:33N 28°07' W 015°25'0 0.1
2016-Apr-24 08:33N 28°07' W 015°25'0 0.3
2016-Apr-24 07:33N 28°07' W 015°25'1 1.1
2016-Apr-24 06:33N 28°08' W 015°25'0 0.0
2016-Apr-24 05:33N 28°08' W 015°25'0 0.0
2016-Apr-24 04:33N 28°08' W 015°25'0 0.0
2016-Apr-24 03:33N 28°08' W 015°25'0 0.0
2016-Apr-24 02:34N 28°08' W 015°25'0 0.0
2016-Apr-24 01:33N 28°08' W 015°25'0 0.0
2016-Apr-24 00:34N 28°08' W 015°25'0 0.0
2016-Apr-23 23:34N 28°08' W 015°25'0 0.0
2016-Apr-23 22:33N 28°08' W 015°25'0 0.0
2016-Apr-23 21:33N 28°08' W 015°25'0 0.0
2016-Apr-23 20:33N 28°08' W 015°25'0 0.0
2016-Apr-23 19:33N 28°08' W 015°25'0 0.0
2016-Apr-23 18:33N 28°08' W 015°25'0 0.0
2016-Apr-23 17:33N 28°08' W 015°25'0 0.0
2016-Apr-23 16:33N 28°08' W 015°25'0 0.0
2016-Apr-23 15:33N 28°08' W 015°25'0 0.0
2016-Apr-23 14:33N 28°08' W 015°25'0 0.0
2016-Apr-23 13:33N 28°08' W 015°25'0 0.0
2016-Apr-23 12:33N 28°08' W 015°25'0 0.0
2016-Apr-23 11:33N 28°08' W 015°25'0 0.0
2016-Apr-23 10:33N 28°08' W 015°25'0 0.0
2016-Apr-23 09:33N 28°08' W 015°25'0 0.0
2016-Apr-23 08:33N 28°08' W 015°25'0 0.0
2016-Apr-23 07:33N 28°08' W 015°25'0 0.0
2016-Apr-23 06:33N 28°08' W 015°25'0 0.0
2016-Apr-23 05:33N 28°08' W 015°25'2 2.2
2016-Apr-23 04:33N 28°06' W 015°24'0 0.0
2016-Apr-23 03:33N 28°06' W 015°24'0 0.0
2016-Apr-23 02:33N 28°06' W 015°24'0 0.0
2016-Apr-23 01:33N 28°06' W 015°24'0 0.0
2016-Apr-23 00:33N 28°06' W 015°24'1 1.3
2016-Apr-22 23:33N 28°07' W 015°25'1 1.1
2016-Apr-22 22:33N 28°08' W 015°25'0 0.0
2016-Apr-22 21:33N 28°08' W 015°25'0 0.0
2016-Apr-22 20:33N 28°08' W 015°25'0 0.0
2016-Apr-22 19:33N 28°08' W 015°25'0 0.0
2016-Apr-22 18:33N 28°08' W 015°25'0 0.0
2016-Apr-22 17:33N 28°08' W 015°25'0 0.0
2016-Apr-22 16:33N 28°08' W 015°25'0 0.0
2016-Apr-22 15:33N 28°08' W 015°25'0 0.0
2016-Apr-22 14:33N 28°08' W 015°25'2 1.6
2016-Apr-22 13:33N 28°07' W 015°25'1 1.2
2016-Apr-22 12:33N 28°06' W 015°24'0 0.0
2016-Apr-22 11:34N 28°06' W 015°24'0 0.0
2016-Apr-22 10:34N 28°06' W 015°24'0 0.0
2016-Apr-22 09:33N 28°06' W 015°24'2 1.9
2016-Apr-22 08:33N 28°08' W 015°25'1 1.0
2016-Apr-22 07:34N 28°08' W 015°25'0 0.0
2016-Apr-22 06:34N 28°08' W 015°25'0 0.0
2016-Apr-22 05:34N 28°08' W 015°25'0 0.0
2016-Apr-22 04:33N 28°08' W 015°25'0 0.0
2016-Apr-22 03:33N 28°08' W 015°25'0 0.0
2016-Apr-22 02:33N 28°08' W 015°25'0 0.0
2016-Apr-22 01:33N 28°08' W 015°25'0 0.0
2016-Apr-22 00:33N 28°08' W 015°25'0 0.0
2016-Apr-21 23:33N 28°08' W 015°25'0 0.0
2016-Apr-21 22:33N 28°08' W 015°25'0 0.0
2016-Apr-21 21:34N 28°08' W 015°25'0 0.0
2016-Apr-21 20:34N 28°08' W 015°25'0 0.0
2016-Apr-21 19:34N 28°08' W 015°25'0 0.0
2016-Apr-21 18:34N 28°08' W 015°25'0 0.0
2016-Apr-21 17:33N 28°08' W 015°25'0 0.0
2016-Apr-21 16:34N 28°08' W 015°25'0 0.0
2016-Apr-21 15:34N 28°08' W 015°25'0 0.0
2016-Apr-21 14:33N 28°08' W 015°25'0 0.0
2016-Apr-21 13:33N 28°08' W 015°25'0 0.0
2016-Apr-21 12:33N 28°08' W 015°25'0 0.0
2016-Apr-21 11:33N 28°08' W 015°25'0 0.0
2016-Apr-21 10:33N 28°08' W 015°25'0 0.0
2016-Apr-21 09:33N 28°08' W 015°25'0 0.0
2016-Apr-21 08:33N 28°08' W 015°25'0 0.0
2016-Apr-21 07:34N 28°08' W 015°25'0 0.0
2016-Apr-21 06:34N 28°08' W 015°25'0 0.0
2016-Apr-21 05:34N 28°08' W 015°25'0 0.0
2016-Apr-21 04:34N 28°08' W 015°25'0 0.0
2016-Apr-21 03:34N 28°08' W 015°25'0 0.0
2016-Apr-21 02:34N 28°08' W 015°25'0 0.0
2016-Apr-21 01:34N 28°08' W 015°25'0 0.0
2016-Apr-21 00:33N 28°08' W 015°25'0 0.0
2016-Apr-20 22:33N 28°08' W 015°25'0 0.0
2016-Apr-20 21:33N 28°08' W 015°25'0 0.0
2016-Apr-20 20:33N 28°08' W 015°25'0 0.0
2016-Apr-20 19:33N 28°08' W 015°25'0 0.0
2016-Apr-20 18:33N 28°08' W 015°25'0 0.0
2016-Apr-20 17:34N 28°08' W 015°25'0 0.0
2016-Apr-20 16:34N 28°08' W 015°25'0 0.0
2016-Apr-20 15:34N 28°08' W 015°25'0 0.0
2016-Apr-20 14:33N 28°08' W 015°25'0 0.0
2016-Apr-20 13:34N 28°08' W 015°25'0 0.0
2016-Apr-20 12:34N 28°08' W 015°25'0 0.0
2016-Apr-20 11:33N 28°08' W 015°25'0 0.0
2016-Apr-20 10:33N 28°08' W 015°25'0 0.0
2016-Apr-20 09:33N 28°08' W 015°25'0 0.0
2016-Apr-20 08:33N 28°08' W 015°25'0 0.0
2016-Apr-20 07:33N 28°08' W 015°25'0 0.0
2016-Apr-20 06:33N 28°08' W 015°25'0 0.0
2016-Apr-20 05:33N 28°08' W 015°25'0 0.0
2016-Apr-20 04:33N 28°08' W 015°25'0 0.0
2016-Apr-20 03:34N 28°08' W 015°25'0 0.0
2016-Apr-20 02:33N 28°08' W 015°25'0 0.0
2016-Apr-20 01:33N 28°08' W 015°25'0 0.0
2016-Apr-20 00:34N 28°08' W 015°25'0 0.0
2016-Apr-19 23:34N 28°08' W 015°25'0 0.0
2016-Apr-19 22:34N 28°08' W 015°25'0 0.0
2016-Apr-19 21:34N 28°08' W 015°25'0 0.0
2016-Apr-19 20:33N 28°08' W 015°25'0 0.0
2016-Apr-19 19:33N 28°08' W 015°25'0 0.0
2016-Apr-19 18:33N 28°08' W 015°25'0 0.0
2016-Apr-19 17:33N 28°08' W 015°25'  

Dump ship's entire track history